Terminal Aerodrome Forecast
Issued by NWS

Home | Current Version | Previous Version | Text Only | Print | Product List | Glossary On
Versions: 1 2 3 4 5 6 7 8 9 10 11 12 13 14
000
FTUS46 KPDT 290300 AAA
TAFALW
TAF AMD
KALW 290331Z 2904/2924 16006KT P6SM FEW250
     FM291500 22011KT P6SM SKC
     FM291900 24011G17KT P6SM SCT200=

USA.gov is the U.S. government's official web portal to all federal, state and local government web resources and services.